createdAt,value
2022-10-11T00:00:57.000Z,0
2022-10-11T00:02:13.000Z,0
2022-10-11T00:03:29.000Z,0
2022-10-11T00:04:45.000Z,0
2022-10-11T00:06:01.000Z,0
2022-10-11T00:07:18.000Z,0
2022-10-11T00:08:33.000Z,0
2022-10-11T00:09:49.000Z,0
2022-10-11T00:11:05.000Z,0
2022-10-11T00:12:21.000Z,0
2022-10-11T00:13:38.000Z,0
2022-10-11T00:14:54.000Z,0
2022-10-11T00:16:10.000Z,0
2022-10-11T00:17:26.000Z,0
2022-10-11T00:18:42.000Z,0
2022-10-11T00:19:59.000Z,0
2022-10-11T00:21:15.427Z,0
2022-10-11T00:22:31.000Z,0
2022-10-11T00:23:47.000Z,0
2022-10-11T00:26:18.000Z,0
2022-10-11T00:27:35.000Z,0
2022-10-11T00:28:51.000Z,0
2022-10-11T00:30:07.000Z,0
2022-10-11T00:31:23.000Z,0
2022-10-11T00:32:39.000Z,0
2022-10-11T00:33:56.000Z,0
2022-10-11T00:35:12.000Z,0
2022-10-11T00:36:28.000Z,0
2022-10-11T00:37:44.000Z,0
2022-10-11T00:39:00.000Z,0
2022-10-11T00:40:17.000Z,0
2022-10-11T00:41:33.000Z,0
2022-10-11T00:42:48.000Z,0
2022-10-11T00:44:04.000Z,0
2022-10-11T00:45:20.000Z,0
2022-10-11T00:46:37.237Z,0
2022-10-11T00:47:53.000Z,0
2022-10-11T00:49:09.000Z,0
2022-10-11T00:50:25.000Z,0
2022-10-11T00:51:41.000Z,0
2022-10-11T00:52:57.000Z,0
2022-10-11T00:54:14.000Z,0
2022-10-11T00:55:30.000Z,0
2022-10-11T00:56:46.000Z,0
2022-10-11T00:58:02.000Z,0
2022-10-11T00:59:17.000Z,0
2022-10-11T01:00:34.000Z,0
2022-10-11T01:01:50.000Z,0
2022-10-11T01:03:06.000Z,0
2022-10-11T01:04:22.000Z,0
2022-10-11T01:05:38.000Z,0
2022-10-11T01:06:55.000Z,0
2022-10-11T01:08:11.000Z,0
2022-10-11T01:09:27.000Z,0
2022-10-11T01:10:43.000Z,0
2022-10-11T01:11:59.000Z,0
2022-10-11T01:13:16.000Z,0
2022-10-11T01:14:32.000Z,0
2022-10-11T01:15:47.000Z,0
2022-10-11T01:17:03.000Z,0
2022-10-11T01:18:19.000Z,0
2022-10-11T01:19:35.000Z,0
2022-10-11T01:20:52.000Z,0
2022-10-11T01:22:07.000Z,0
2022-10-11T01:23:23.000Z,0
2022-10-11T01:24:39.000Z,0
2022-10-11T01:25:55.000Z,0
2022-10-11T01:27:12.000Z,0
2022-10-11T01:28:28.000Z,0
2022-10-11T01:29:44.000Z,0
2022-10-11T01:31:00.000Z,0
2022-10-11T01:32:16.000Z,0
2022-10-11T01:33:33.000Z,0
2022-10-11T01:34:49.000Z,0
2022-10-11T01:36:05.000Z,0
2022-10-11T01:37:21.000Z,0
2022-10-11T01:38:36.000Z,0
2022-10-11T01:39:53.000Z,0
2022-10-11T01:41:09.000Z,0
2022-10-11T01:42:25.000Z,0
2022-10-11T01:43:41.000Z,0
2022-10-11T01:44:57.000Z,0
2022-10-11T01:46:13.000Z,0
2022-10-11T01:47:30.000Z,0
2022-10-11T01:48:46.000Z,0
2022-10-11T01:50:02.763Z,0
2022-10-11T01:51:18.000Z,0
2022-10-11T01:52:34.000Z,0
2022-10-11T01:53:51.000Z,0
2022-10-11T01:55:06.000Z,0
2022-10-11T01:56:22.000Z,0
2022-10-11T01:57:38.000Z,0
2022-10-11T01:58:54.000Z,0
2022-10-11T02:00:11.000Z,0
2022-10-11T02:01:27.000Z,0
2022-10-11T02:02:43.000Z,0
2022-10-11T02:03:59.000Z,0
2022-10-11T02:05:15.000Z,0
2022-10-11T02:06:32.240Z,0
2022-10-11T02:07:48.000Z,0
2022-10-11T02:09:04.000Z,0
2022-10-11T02:10:20.000Z,0
2022-10-11T02:11:35.000Z,0
2022-10-11T02:12:51.000Z,0
2022-10-11T02:14:08.000Z,0
2022-10-11T02:15:24.000Z,0
2022-10-11T02:16:40.000Z,0
2022-10-11T02:17:56.000Z,0
2022-10-11T02:19:12.000Z,0
2022-10-11T02:20:29.000Z,0
2022-10-11T02:21:45.000Z,0
2022-10-11T02:23:01.000Z,0
2022-10-11T02:24:17.000Z,0
2022-10-11T02:25:33.000Z,0
2022-10-11T02:26:50.000Z,0
2022-10-11T02:28:05.000Z,0
2022-10-11T02:29:21.000Z,0
2022-10-11T02:30:37.000Z,0
2022-10-11T02:31:53.000Z,0
2022-10-11T02:33:10.000Z,0
2022-10-11T02:34:26.000Z,0
2022-10-11T02:35:42.000Z,0
2022-10-11T02:36:58.000Z,0
2022-10-11T02:38:14.000Z,0
2022-10-11T02:39:30.000Z,0
2022-10-11T02:40:47.000Z,0
2022-10-11T02:42:03.000Z,0
2022-10-11T02:43:19.000Z,0
2022-10-11T02:44:34.000Z,0
2022-10-11T02:45:50.000Z,0
2022-10-11T02:47:07.000Z,0
2022-10-11T02:48:23.000Z,0
2022-10-11T02:49:39.000Z,0
2022-10-11T02:50:55.000Z,0
2022-10-11T02:52:11.000Z,0
2022-10-11T02:53:28.000Z,0
2022-10-11T02:54:44.000Z,0
2022-10-11T02:56:00.000Z,0
2022-10-11T02:57:16.000Z,0
2022-10-11T02:58:32.000Z,0
2022-10-11T02:59:49.000Z,0
2022-10-11T03:01:04.000Z,0
2022-10-11T03:02:20.000Z,0
2022-10-11T03:03:36.000Z,0
2022-10-11T03:04:52.000Z,0
2022-10-11T03:06:08.000Z,0
2022-10-11T03:07:25.000Z,0
2022-10-11T03:08:41.000Z,0
2022-10-11T03:09:57.000Z,0
2022-10-11T03:11:13.000Z,0
2022-10-11T03:12:29.000Z,0
2022-10-11T03:13:46.000Z,0
2022-10-11T03:15:02.000Z,0
2022-10-11T03:16:18.000Z,0
2022-10-11T03:17:34.000Z,0
2022-10-11T03:18:49.000Z,0
2022-10-11T03:20:06.000Z,0
2022-10-11T03:21:22.000Z,0
2022-10-11T03:22:38.000Z,0
2022-10-11T03:23:54.000Z,0
2022-10-11T03:25:10.000Z,0
2022-10-11T03:26:27.000Z,0
2022-10-11T03:27:43.000Z,0
2022-10-11T03:28:59.000Z,0
2022-10-11T03:30:15.000Z,0
2022-10-11T03:31:31.000Z,0
2022-10-11T03:32:47.000Z,0
2022-10-11T03:34:04.000Z,0
2022-10-11T03:35:19.000Z,0
2022-10-11T03:36:35.000Z,0
2022-10-11T03:37:51.000Z,0
2022-10-11T03:39:07.000Z,0
2022-10-11T03:40:24.000Z,0
2022-10-11T03:41:40.000Z,0
2022-10-11T03:42:56.000Z,0
2022-10-11T03:44:12.000Z,0
2022-10-11T03:45:28.000Z,0
2022-10-11T03:46:45.000Z,0
2022-10-11T03:48:01.000Z,0
2022-10-11T03:49:17.000Z,0
2022-10-11T03:50:33.000Z,0
2022-10-11T03:51:48.000Z,0
2022-10-11T03:53:05.000Z,0
2022-10-11T03:54:21.000Z,0
2022-10-11T03:55:37.000Z,0
2022-10-11T03:56:53.000Z,0
2022-10-11T03:58:09.000Z,0
2022-10-11T03:59:25.000Z,0
2022-10-11T04:00:42.000Z,0
2022-10-11T04:01:58.000Z,0
2022-10-11T04:03:14.000Z,0
2022-10-11T04:04:30.000Z,0
2022-10-11T04:05:46.000Z,0
2022-10-11T04:07:03.000Z,0
2022-10-11T04:08:18.000Z,0
2022-10-11T04:09:34.000Z,0
2022-10-11T04:10:50.000Z,0
2022-10-11T04:12:06.000Z,0
2022-10-11T04:13:23.000Z,0
2022-10-11T04:14:39.000Z,0
2022-10-11T04:15:55.000Z,0
2022-10-11T04:17:11.000Z,0
2022-10-11T04:18:27.000Z,0
2022-10-11T04:19:43.000Z,0
2022-10-11T04:21:00.000Z,0
2022-10-11T04:22:16.000Z,0
2022-10-11T04:23:32.000Z,0
2022-10-11T04:24:47.000Z,0
2022-10-11T04:26:03.000Z,0
2022-10-11T04:27:20.000Z,0
2022-10-11T04:28:36.000Z,0
2022-10-11T04:29:52.000Z,0
2022-10-11T04:31:08.000Z,0
2022-10-11T04:32:24.000Z,0
2022-10-11T04:33:41.000Z,0
2022-10-11T04:34:57.000Z,0
2022-10-11T04:36:13.000Z,0
2022-10-11T04:37:29.000Z,0
2022-10-11T04:38:45.000Z,0
2022-10-11T04:40:02.000Z,0
2022-10-11T04:41:17.000Z,0
2022-10-11T04:42:33.000Z,0
2022-10-11T04:43:49.000Z,0
2022-10-11T04:45:05.000Z,0
2022-10-11T04:46:22.000Z,0
2022-10-11T04:47:38.000Z,0
2022-10-11T04:48:54.000Z,0
2022-10-11T04:50:10.000Z,0
2022-10-11T04:51:26.000Z,0
2022-10-11T04:52:42.000Z,0
2022-10-11T04:53:59.000Z,0
2022-10-11T04:55:15.000Z,0
2022-10-11T04:56:31.000Z,0
2022-10-11T04:57:46.000Z,0
2022-10-11T04:59:02.000Z,0
2022-10-11T05:00:19.000Z,0
2022-10-11T05:01:35.000Z,0
2022-10-11T05:02:51.000Z,0
2022-10-11T05:04:07.000Z,0
2022-10-11T05:05:23.000Z,0
2022-10-11T05:06:40.000Z,0
2022-10-11T05:07:56.000Z,0
2022-10-11T05:09:12.000Z,0
2022-10-11T05:10:28.000Z,0
2022-10-11T05:11:44.000Z,0
2022-10-11T05:13:00.000Z,0
2022-10-11T05:14:16.000Z,0
2022-10-11T05:15:32.000Z,4
2022-10-11T05:16:48.000Z,0
2022-10-11T05:18:04.000Z,4
2022-10-11T05:19:20.000Z,4
2022-10-11T05:20:37.000Z,8
2022-10-11T05:21:53.000Z,8
2022-10-11T05:23:09.000Z,8
2022-10-11T05:24:25.000Z,12
2022-10-11T05:25:41.000Z,12
2022-10-11T05:26:58.000Z,16
2022-10-11T05:28:14.000Z,24
2022-10-11T05:29:30.000Z,28
2022-10-11T05:30:45.000Z,36
2022-10-11T05:32:01.000Z,40
2022-10-11T05:33:18.000Z,52
2022-10-11T05:34:34.000Z,60
2022-10-11T05:35:50.000Z,72
2022-10-11T05:37:05.000Z,92
2022-10-11T05:38:21.000Z,104
2022-10-11T05:39:37.000Z,124
2022-10-11T05:40:54.000Z,148
2022-10-11T05:42:10.000Z,168
2022-10-11T05:43:26.000Z,192
2022-10-11T05:44:42.000Z,216
2022-10-11T05:45:58.000Z,244
2022-10-11T05:47:15.000Z,268
2022-10-11T05:48:31.000Z,296
2022-10-11T05:49:47.000Z,332
2022-10-11T05:51:03.000Z,368
2022-10-11T05:52:19.000Z,412
2022-10-11T05:53:35.000Z,456
2022-10-11T05:54:51.000Z,500
2022-10-11T05:56:07.000Z,548
2022-10-11T05:57:23.000Z,596
2022-10-11T05:58:39.000Z,656
2022-10-11T05:59:55.000Z,712
2022-10-11T06:01:12.000Z,768
2022-10-11T06:02:28.000Z,832
2022-10-11T06:03:44.000Z,892
2022-10-11T06:05:00.000Z,956
2022-10-11T06:06:16.000Z,1020
2022-10-11T06:07:33.000Z,1084
2022-10-11T06:08:49.000Z,1144
2022-10-11T06:10:04.000Z,1196
2022-10-11T06:11:20.000Z,1240
2022-10-11T06:12:36.000Z,1308
2022-10-11T06:13:53.000Z,1376
2022-10-11T06:15:09.000Z,1436
2022-10-11T06:16:25.000Z,1540
2022-10-11T06:17:41.000Z,1688
2022-10-11T06:18:57.000Z,1816
2022-10-11T06:20:14.000Z,1912
2022-10-11T06:21:30.000Z,1988
2022-10-11T06:22:46.000Z,1936
2022-10-11T06:24:02.000Z,1860
2022-10-11T06:25:18.000Z,2092
2022-10-11T06:26:33.000Z,2268
2022-10-11T06:27:50.000Z,2312
2022-10-11T06:29:06.000Z,2220
2022-10-11T06:30:22.000Z,2040
2022-10-11T06:31:38.000Z,2056
2022-10-11T06:32:54.000Z,2096
2022-10-11T06:34:11.000Z,2212
2022-10-11T06:35:27.000Z,2272
2022-10-11T06:36:43.000Z,2320
2022-10-11T06:37:59.000Z,2360
2022-10-11T06:39:15.000Z,2388
2022-10-11T06:40:32.000Z,2412
2022-10-11T06:41:48.000Z,2428
2022-10-11T06:43:03.000Z,2468
2022-10-11T06:44:19.000Z,2508
2022-10-11T06:45:35.000Z,2528
2022-10-11T06:46:51.000Z,2568
2022-10-11T06:48:08.000Z,2596
2022-10-11T06:49:24.000Z,2648
2022-10-11T06:50:40.000Z,2732
2022-10-11T06:51:56.000Z,2844
2022-10-11T06:53:12.000Z,2928
2022-10-11T06:54:29.000Z,3008
2022-10-11T06:55:45.000Z,3100
2022-10-11T06:57:01.000Z,3392
2022-10-11T06:58:17.000Z,3604
2022-10-11T06:59:32.000Z,3764
2022-10-11T07:00:49.000Z,3928
2022-10-11T07:02:05.000Z,4012
2022-10-11T07:03:21.000Z,3936
2022-10-11T07:04:37.000Z,3796
2022-10-11T07:05:53.000Z,3596
2022-10-11T07:07:10.000Z,3348
2022-10-11T07:08:26.000Z,3280
2022-10-11T07:09:42.000Z,3200
2022-10-11T07:10:58.000Z,3128
2022-10-11T07:12:14.000Z,3104
2022-10-11T07:13:30.000Z,3144
2022-10-11T07:14:47.000Z,3444
2022-10-11T07:16:02.000Z,3420
2022-10-11T07:17:18.000Z,3080
2022-10-11T07:18:34.000Z,2996
2022-10-11T07:19:50.000Z,2920
2022-10-11T07:21:07.000Z,2864
2022-10-11T07:22:23.000Z,2856
2022-10-11T07:23:39.000Z,2916
2022-10-11T07:24:55.000Z,2996
2022-10-11T07:26:11.000Z,3064
2022-10-11T07:27:28.000Z,3164
2022-10-11T07:28:44.000Z,2916
2022-10-11T07:30:00.000Z,3168
2022-10-11T07:31:19.448Z,3368
2022-10-11T07:32:31.000Z,3384
2022-10-11T07:33:47.000Z,3460
2022-10-11T07:35:04.000Z,3556
2022-10-11T07:36:20.000Z,3816
2022-10-11T07:37:36.000Z,6612
2022-10-11T07:38:52.000Z,5180
2022-10-11T07:40:08.000Z,4392
2022-10-11T07:41:25.000Z,4972
2022-10-11T07:42:41.000Z,5880
2022-10-11T07:43:57.000Z,6464
2022-10-11T07:45:13.000Z,9196
2022-10-11T07:46:29.000Z,9352
2022-10-11T07:47:46.000Z,7216
2022-10-11T07:49:01.000Z,3916
2022-10-11T07:50:17.000Z,3944
2022-10-11T07:51:33.000Z,3880
2022-10-11T07:52:49.000Z,3868
2022-10-11T07:54:05.000Z,3840
2022-10-11T07:55:22.000Z,3820
2022-10-11T07:56:38.000Z,3748
2022-10-11T07:57:54.000Z,3796
2022-10-11T07:59:10.000Z,3856
2022-10-11T08:00:26.000Z,3892
2022-10-11T08:01:43.000Z,3936
2022-10-11T08:02:59.000Z,4036
2022-10-11T08:04:15.000Z,4152
2022-10-11T08:05:30.000Z,4252
2022-10-11T08:06:46.000Z,4328
2022-10-11T08:08:03.000Z,4468
2022-10-11T08:09:19.000Z,4600
2022-10-11T08:10:35.000Z,4468
2022-10-11T08:11:51.000Z,4528
2022-10-11T08:13:07.000Z,4820
2022-10-11T08:14:24.000Z,4872
2022-10-11T08:15:40.000Z,4988
2022-10-11T08:16:56.000Z,5200
2022-10-11T08:18:12.000Z,5260
2022-10-11T08:19:28.000Z,5400
2022-10-11T08:20:44.000Z,5624
2022-10-11T08:22:00.000Z,6348
2022-10-11T08:23:16.000Z,11536
2022-10-11T08:24:32.000Z,12620
2022-10-11T08:25:48.000Z,13444
2022-10-11T08:27:04.000Z,10356
2022-10-11T08:28:21.000Z,7248
2022-10-11T08:29:37.000Z,8052
2022-10-11T08:30:53.000Z,9048
2022-10-11T08:32:09.000Z,9464
2022-10-11T08:33:25.000Z,9064
2022-10-11T08:34:42.000Z,8296
2022-10-11T08:35:58.000Z,7204
2022-10-11T08:37:14.000Z,6980
2022-10-11T08:38:29.000Z,7004
2022-10-11T08:39:45.000Z,7048
2022-10-11T08:41:01.000Z,7164
2022-10-11T08:42:18.000Z,7380
2022-10-11T08:43:34.000Z,7568
2022-10-11T08:44:50.000Z,7664
2022-10-11T08:46:06.000Z,7692
2022-10-11T08:47:22.000Z,7980
2022-10-11T08:48:39.000Z,8336
2022-10-11T08:49:55.000Z,8476
2022-10-11T08:51:11.000Z,8652
2022-10-11T08:52:27.000Z,8904
2022-10-11T08:53:43.000Z,9192
2022-10-11T08:54:59.000Z,9532
2022-10-11T08:56:15.000Z,9832
2022-10-11T08:57:31.000Z,9996
2022-10-11T08:58:47.000Z,10104
2022-10-11T09:00:03.000Z,10228
2022-10-11T09:01:19.000Z,10324
2022-10-11T09:02:36.000Z,10232
2022-10-11T09:03:52.000Z,10220
2022-10-11T09:05:08.000Z,10172
2022-10-11T09:06:24.000Z,10120
2022-10-11T09:07:40.000Z,10224
2022-10-11T09:08:57.000Z,10104
2022-10-11T09:10:13.000Z,10072
2022-10-11T09:11:28.000Z,10052
2022-10-11T09:12:44.000Z,9972
2022-10-11T09:14:00.000Z,9964
2022-10-11T09:15:17.000Z,10024
2022-10-11T09:16:33.000Z,10160
2022-10-11T09:17:49.000Z,10260
2022-10-11T09:19:05.000Z,10344
2022-10-11T09:20:21.000Z,10368
2022-10-11T09:21:37.000Z,10436
2022-10-11T09:22:54.000Z,10516
2022-10-11T09:24:10.000Z,10648
2022-10-11T09:25:26.000Z,10676
2022-10-11T09:26:42.000Z,10668
2022-10-11T09:27:57.000Z,10700
2022-10-11T09:29:14.000Z,10620
2022-10-11T09:30:30.000Z,10568
2022-10-11T09:31:46.000Z,10740
2022-10-11T09:33:02.000Z,10560
2022-10-11T09:34:18.000Z,10556
2022-10-11T09:35:35.000Z,10948
2022-10-11T09:36:51.000Z,11012
2022-10-11T09:38:07.000Z,11116
2022-10-11T09:39:23.000Z,11236
2022-10-11T09:40:39.000Z,11920
2022-10-11T09:41:56.000Z,14148
2022-10-11T09:43:12.000Z,15172
2022-10-11T09:44:27.000Z,15764
2022-10-11T09:45:43.000Z,14980
2022-10-11T09:46:59.000Z,14828
2022-10-11T09:48:15.000Z,13704
2022-10-11T09:49:32.000Z,11804
2022-10-11T09:50:48.000Z,12224
2022-10-11T09:52:03.000Z,12776
2022-10-11T09:53:19.000Z,13044
2022-10-11T09:54:35.000Z,13096
2022-10-11T09:55:52.000Z,14012
2022-10-11T09:57:08.000Z,13788
2022-10-11T09:58:24.000Z,11148
2022-10-11T09:59:40.000Z,13352
2022-10-11T10:00:56.000Z,14360
2022-10-11T10:02:13.000Z,18176
2022-10-11T10:03:29.000Z,24224
2022-10-11T10:04:45.000Z,14496
2022-10-11T10:06:01.000Z,13016
2022-10-11T10:07:17.000Z,12384
2022-10-11T10:08:33.000Z,13048
2022-10-11T10:09:49.000Z,15296
2022-10-11T10:11:05.000Z,17312
2022-10-11T10:12:21.000Z,15572
2022-10-11T10:13:37.000Z,18464
2022-10-11T10:14:53.000Z,23200
2022-10-11T10:16:10.000Z,25664
2022-10-11T10:17:26.000Z,20736
2022-10-11T10:18:42.000Z,27040
2022-10-11T10:19:58.000Z,40736
2022-10-11T10:21:14.000Z,43808
2022-10-11T10:22:31.000Z,27776
2022-10-11T10:23:47.000Z,33856
2022-10-11T10:25:02.000Z,41888
2022-10-11T10:26:18.000Z,49024
2022-10-11T10:27:34.000Z,37216
2022-10-11T10:28:51.000Z,24992
2022-10-11T10:30:07.000Z,41472
2022-10-11T10:31:23.000Z,11460
2022-10-11T10:32:39.000Z,47712
2022-10-11T10:33:55.000Z,39136
2022-10-11T10:35:11.000Z,26112
2022-10-11T10:36:28.000Z,43136
2022-10-11T10:37:44.000Z,42144
2022-10-11T10:39:00.000Z,47040
2022-10-11T10:40:16.000Z,26944
2022-10-11T10:41:32.123Z,23584
2022-10-11T10:42:48.000Z,18048
2022-10-11T10:44:04.000Z,26112
2022-10-11T10:45:20.000Z,39712
2022-10-11T10:46:36.000Z,49216
2022-10-11T10:47:52.000Z,47776
2022-10-11T10:49:09.000Z,31744
2022-10-11T10:50:25.000Z,23200
2022-10-11T10:51:41.000Z,40864
2022-10-11T10:52:57.000Z,40832
2022-10-11T10:54:13.000Z,39232
2022-10-11T10:55:29.000Z,40576
2022-10-11T10:56:46.000Z,39200
2022-10-11T10:58:01.000Z,22784
2022-10-11T10:59:17.000Z,17984
2022-10-11T11:00:33.000Z,33280
2022-10-11T11:01:49.000Z,27904
2022-10-11T11:03:06.000Z,25088
2022-10-11T11:04:22.000Z,30688
2022-10-11T11:05:38.000Z,41312
2022-10-11T11:06:54.000Z,36928
2022-10-11T11:08:10.000Z,12540
2022-10-11T11:09:27.000Z,12996
2022-10-11T11:10:43.000Z,12920
2022-10-11T11:11:59.000Z,11004
2022-10-11T11:13:15.000Z,10476
2022-10-11T11:14:31.000Z,12108
2022-10-11T11:15:46.000Z,11804
2022-10-11T11:17:03.000Z,11924
2022-10-11T11:18:19.000Z,10272
2022-10-11T11:19:35.000Z,10972
2022-10-11T11:20:51.000Z,10172
2022-10-11T11:22:07.000Z,9968
2022-10-11T11:23:24.000Z,7616
2022-10-11T11:24:40.000Z,7264
2022-10-11T11:25:56.000Z,7808
2022-10-11T11:27:12.000Z,8416
2022-10-11T11:28:28.000Z,11592
2022-10-11T11:29:45.000Z,11672
2022-10-11T11:31:01.000Z,11880
2022-10-11T11:32:16.000Z,11616
2022-10-11T11:33:32.000Z,11580
2022-10-11T11:34:48.000Z,11684
2022-10-11T11:36:04.000Z,10672
2022-10-11T11:37:21.000Z,11004
2022-10-11T11:38:37.000Z,11080
2022-10-11T11:39:53.000Z,11252
2022-10-11T11:41:09.000Z,10680
2022-10-11T11:42:25.000Z,8172
2022-10-11T11:43:42.000Z,8156
2022-10-11T11:44:58.000Z,8104
2022-10-11T11:46:14.000Z,8212
2022-10-11T11:47:30.000Z,8136
2022-10-11T11:48:45.000Z,7468
2022-10-11T11:50:02.290Z,6924
2022-10-11T11:51:18.000Z,6132
2022-10-11T11:52:34.000Z,5176
2022-10-11T11:53:50.000Z,4748
2022-10-11T11:55:06.000Z,4724
2022-10-11T11:56:23.000Z,4920
2022-10-11T11:57:39.000Z,5212
2022-10-11T11:58:55.000Z,5448
2022-10-11T12:00:11.000Z,5732
2022-10-11T12:01:27.000Z,9712
2022-10-11T12:02:43.000Z,33056
2022-10-11T12:04:00.000Z,42144
2022-10-11T12:05:15.000Z,39584
2022-10-11T12:06:31.000Z,36576
2022-10-11T12:07:47.000Z,33312
2022-10-11T12:09:03.000Z,29888
2022-10-11T12:10:20.000Z,27456
2022-10-11T12:11:36.000Z,25280
2022-10-11T12:12:52.000Z,24288
2022-10-11T12:14:08.000Z,24320
2022-10-11T12:15:24.000Z,21920
2022-10-11T12:16:41.000Z,20992
2022-10-11T12:17:57.000Z,25856
2022-10-11T12:19:13.000Z,27424
2022-10-11T12:20:29.000Z,28544
2022-10-11T12:21:44.000Z,30272
2022-10-11T12:23:00.000Z,32032
2022-10-11T12:24:17.000Z,34048
2022-10-11T12:25:33.000Z,11816
2022-10-11T12:26:49.000Z,7968
2022-10-11T12:28:05.000Z,7328
2022-10-11T12:29:21.000Z,7160
2022-10-11T12:30:38.000Z,7192
2022-10-11T12:31:54.277Z,7744
2022-10-11T12:33:10.000Z,8008
2022-10-11T12:34:26.000Z,7944
2022-10-11T12:35:42.000Z,8192
2022-10-11T12:36:59.000Z,8868
2022-10-11T12:38:14.000Z,10180
2022-10-11T12:39:30.000Z,10816
2022-10-11T12:40:46.832Z,11232
2022-10-11T12:42:02.000Z,11520
2022-10-11T12:43:18.000Z,11160
2022-10-11T12:44:35.000Z,10652
2022-10-11T12:45:51.000Z,9820
2022-10-11T12:47:07.000Z,9940
2022-10-11T12:48:23.000Z,10280
2022-10-11T12:49:39.000Z,10744
2022-10-11T12:50:56.000Z,12312
2022-10-11T12:52:12.000Z,19520
2022-10-11T12:53:28.000Z,26080
2022-10-11T12:54:43.000Z,30048
2022-10-11T12:55:59.000Z,29184
2022-10-11T12:57:16.000Z,29440
2022-10-11T12:58:32.000Z,29120
2022-10-11T12:59:48.000Z,28928
2022-10-11T13:01:04.000Z,28928
2022-10-11T13:02:20.000Z,29120
2022-10-11T13:03:36.000Z,27360
2022-10-11T13:04:53.000Z,23808
2022-10-11T13:06:09.000Z,19648
2022-10-11T13:07:25.000Z,16416
2022-10-11T13:08:41.000Z,15648
2022-10-11T13:09:57.000Z,15720
2022-10-11T13:11:13.000Z,15260
2022-10-11T13:12:29.000Z,14792
2022-10-11T13:13:45.000Z,14580
2022-10-11T13:15:01.000Z,14588
2022-10-11T13:16:17.000Z,14128
2022-10-11T13:17:34.000Z,13632
2022-10-11T13:18:50.000Z,13448
2022-10-11T13:20:06.000Z,12736
2022-10-11T13:21:22.851Z,13076
2022-10-11T13:22:38.000Z,13400
2022-10-11T13:23:54.000Z,13476
2022-10-11T13:25:11.000Z,12552
2022-10-11T13:26:27.000Z,10088
2022-10-11T13:27:42.000Z,12420
2022-10-11T13:28:58.000Z,12568
2022-10-11T13:30:14.000Z,5908
2022-10-11T13:31:31.000Z,5716
2022-10-11T13:32:47.000Z,5636
2022-10-11T13:34:03.000Z,8648
2022-10-11T13:35:19.000Z,5620
2022-10-11T13:36:35.000Z,5660
2022-10-11T13:37:52.000Z,5364
2022-10-11T13:39:08.000Z,5864
2022-10-11T13:40:24.000Z,4568
2022-10-11T13:41:40.000Z,4428
2022-10-11T13:42:56.000Z,4312
2022-10-11T13:44:12.000Z,4376
2022-10-11T13:45:28.000Z,4604
2022-10-11T13:46:44.000Z,4396
2022-10-11T13:48:00.000Z,4328
2022-10-11T13:49:16.000Z,4528
2022-10-11T13:50:32.000Z,4980
2022-10-11T13:51:49.000Z,5264
2022-10-11T13:53:05.000Z,4912
2022-10-11T13:54:21.000Z,4552
2022-10-11T13:55:37.000Z,4376
2022-10-11T13:56:53.000Z,4300
2022-10-11T13:58:10.000Z,4216
2022-10-11T13:59:26.000Z,4116
2022-10-11T14:00:41.000Z,4132
2022-10-11T14:01:57.000Z,4168
2022-10-11T14:03:13.000Z,4056
2022-10-11T14:04:30.000Z,4092
2022-10-11T14:05:46.000Z,4332
2022-10-11T14:07:01.000Z,4400
2022-10-11T14:08:17.000Z,4280
2022-10-11T14:09:33.000Z,4056
2022-10-11T14:10:49.000Z,3876
2022-10-11T14:12:06.000Z,3752
2022-10-11T14:13:22.000Z,3724
2022-10-11T14:14:38.000Z,3744
2022-10-11T14:15:54.000Z,3776
2022-10-11T14:17:10.000Z,3832
2022-10-11T14:18:27.000Z,3796
2022-10-11T14:19:43.000Z,3752
2022-10-11T14:20:59.000Z,3736
2022-10-11T14:22:15.000Z,3744
2022-10-11T14:23:30.000Z,3672
2022-10-11T14:24:47.000Z,3632
2022-10-11T14:26:03.000Z,3624
2022-10-11T14:27:19.000Z,3588
2022-10-11T14:28:35.000Z,3620
2022-10-11T14:29:51.000Z,3552
2022-10-11T14:31:08.000Z,3480
2022-10-11T14:32:24.000Z,3504
2022-10-11T14:33:40.000Z,3652
2022-10-11T14:34:56.000Z,3784
2022-10-11T14:36:12.000Z,3792
2022-10-11T14:37:28.000Z,3824
2022-10-11T14:38:45.000Z,3944
2022-10-11T14:40:00.000Z,3924
2022-10-11T14:41:16.000Z,3836
2022-10-11T14:42:32.000Z,3688
2022-10-11T14:43:48.000Z,3524
2022-10-11T14:45:05.000Z,3504
2022-10-11T14:46:21.000Z,3516
2022-10-11T14:47:37.000Z,3484
2022-10-11T14:48:53.000Z,3496
2022-10-11T14:50:09.000Z,3564
2022-10-11T14:51:26.000Z,3796
2022-10-11T14:52:42.000Z,9224
2022-10-11T14:53:58.000Z,9904
2022-10-11T14:55:14.000Z,7900
2022-10-11T14:56:29.000Z,8796
2022-10-11T14:57:45.000Z,9400
2022-10-11T14:59:02.000Z,9200
2022-10-11T15:00:18.000Z,9552
2022-10-11T15:01:34.000Z,7832
2022-10-11T15:02:50.000Z,6888
2022-10-11T15:04:06.000Z,7384
2022-10-11T15:05:23.000Z,9172
2022-10-11T15:06:39.000Z,10644
2022-10-11T15:07:55.000Z,10324
2022-10-11T15:09:11.000Z,10412
2022-10-11T15:10:27.000Z,11348
2022-10-11T15:11:44.000Z,12112
2022-10-11T15:12:59.000Z,12372
2022-10-11T15:14:15.000Z,12004
2022-10-11T15:15:31.000Z,12424
2022-10-11T15:16:47.000Z,12544
2022-10-11T15:18:04.000Z,11940
2022-10-11T15:19:20.000Z,11776
2022-10-11T15:20:36.000Z,11772
2022-10-11T15:21:52.000Z,11976
2022-10-11T15:23:08.000Z,12268
2022-10-11T15:24:24.000Z,12444
2022-10-11T15:25:41.000Z,11384
2022-10-11T15:26:57.000Z,8220
2022-10-11T15:28:13.000Z,5420
2022-10-11T15:29:28.000Z,5276
2022-10-11T15:30:44.000Z,6664
2022-10-11T15:32:01.000Z,7140
2022-10-11T15:33:17.000Z,6380
2022-10-11T15:34:33.000Z,5728
2022-10-11T15:35:49.000Z,5260
2022-10-11T15:37:05.000Z,5084
2022-10-11T15:38:22.000Z,4860
2022-10-11T15:39:38.000Z,4688
2022-10-11T15:40:54.000Z,4536
2022-10-11T15:42:10.000Z,4444
2022-10-11T15:43:26.000Z,4240
2022-10-11T15:44:42.000Z,3924
2022-10-11T15:45:58.000Z,3696
2022-10-11T15:47:14.000Z,3520
2022-10-11T15:48:30.000Z,3352
2022-10-11T15:49:46.000Z,3224
2022-10-11T15:51:02.000Z,3088
2022-10-11T15:52:19.000Z,2976
2022-10-11T15:53:35.000Z,2884
2022-10-11T15:54:51.000Z,2788
2022-10-11T15:56:07.000Z,2668
2022-10-11T15:57:23.000Z,2544
2022-10-11T15:58:40.000Z,2436
2022-10-11T15:59:56.000Z,2364
2022-10-11T16:01:12.000Z,2276
2022-10-11T16:02:28.000Z,2148
2022-10-11T16:03:43.000Z,1944
2022-10-11T16:05:00.000Z,1908
2022-10-11T16:06:16.000Z,1816
2022-10-11T16:07:32.000Z,1728
2022-10-11T16:08:48.000Z,1676
2022-10-11T16:10:04.000Z,1580
2022-10-11T16:11:20.000Z,1536
2022-10-11T16:12:37.000Z,1452
2022-10-11T16:13:53.000Z,1264
2022-10-11T16:15:09.000Z,1088
2022-10-11T16:16:25.000Z,1040
2022-10-11T16:17:41.000Z,988
2022-10-11T16:18:58.000Z,936
2022-10-11T16:20:13.000Z,888
2022-10-11T16:21:29.000Z,844
2022-10-11T16:22:45.000Z,804
2022-10-11T16:24:01.000Z,768
2022-10-11T16:25:18.000Z,752
2022-10-11T16:26:34.000Z,724
2022-10-11T16:27:50.000Z,672
2022-10-11T16:29:06.000Z,620
2022-10-11T16:30:22.000Z,580
2022-10-11T16:31:39.000Z,540
2022-10-11T16:32:55.000Z,508
2022-10-11T16:34:11.000Z,472
2022-10-11T16:35:27.000Z,436
2022-10-11T16:36:42.000Z,404
2022-10-11T16:37:58.000Z,376
2022-10-11T16:39:15.000Z,340
2022-10-11T16:40:31.000Z,312
2022-10-11T16:41:47.000Z,280
2022-10-11T16:43:03.000Z,248
2022-10-11T16:44:19.000Z,220
2022-10-11T16:45:36.000Z,196
2022-10-11T16:46:52.000Z,172
2022-10-11T16:48:08.000Z,148
2022-10-11T16:49:24.000Z,132
2022-10-11T16:50:40.000Z,116
2022-10-11T16:51:57.000Z,96
2022-10-11T16:53:12.000Z,84
2022-10-11T16:54:28.000Z,72
2022-10-11T16:55:44.000Z,60
2022-10-11T16:57:00.000Z,48
2022-10-11T16:58:17.000Z,40
2022-10-11T16:59:33.000Z,32
2022-10-11T17:00:49.000Z,24
2022-10-11T17:02:05.000Z,20
2022-10-11T17:03:21.000Z,16
2022-10-11T17:04:37.000Z,12
2022-10-11T17:05:54.000Z,12
2022-10-11T17:07:10.000Z,8
2022-10-11T17:08:26.000Z,8
2022-10-11T17:09:41.000Z,8
2022-10-11T17:10:57.000Z,4
2022-10-11T17:12:14.000Z,4
2022-10-11T17:13:30.000Z,0
2022-10-11T17:14:46.000Z,4
2022-10-11T17:16:02.000Z,4
2022-10-11T17:17:18.000Z,0
2022-10-11T17:18:35.000Z,0
2022-10-11T17:19:51.000Z,0
2022-10-11T17:21:07.000Z,0
2022-10-11T17:22:23.000Z,0
2022-10-11T17:23:39.000Z,0